AR-0095 weather

Cerro Chapelco Heliport
San Martín De Los Andes, Neuquén Province, Argentina

Public forecast

Using degrees Celsius for public forecast. Weather courtesy of forecast.io.

Closest aviation weather report (METAR) to Cerro Chapelco Heliport

Report is more than 6 hours old.

Closest report is Aviador C. Campos Airport, 11.2 nm (20.7 km) NE. Retrieved 2019/10/12 13:30 UTC (2 days ago):

SAZY 121330Z 29015G25KT 240V290 9999 BKN030 10/02 Q1012

Closest aviation forecast (TAF) to Cerro Chapelco Heliport

Forecast is more than 12 hours old.

Closest forecast is Aviador C. Campos Airport, 11.2 nm (20.7 km) NE. Retrieved 2019/10/03 00:00 UTC (12 days ago):

TAF SAZY 022300Z 0300/0324 18005KT 9999 BKN050 TX10/0218Z TNM04/0310Z TEMPO 0300/0303 8000 RADZ BKN030 BECMG 0303/0305 VRB03KT SCT050 BECMG 0310/0312 10005KT 8000 RADZ BKN030 FEW045TCU BECMG 0320/0322 VRB03KT 9000 SHRA BKN040 FEW050TCU